sensor_id;sensor_type;location;lat;lon;timestamp;P1;durP1;ratioP1;P2;durP2;ratioP2
64029;SDS011;50277;52.064;4.492;2023-05-01T00:00:42;9.00;;;3.55;;
64029;SDS011;50277;52.064;4.492;2023-05-01T00:03:07;5.05;;;3.10;;
64029;SDS011;50277;52.064;4.492;2023-05-01T00:05:32;4.93;;;2.78;;
64029;SDS011;50277;52.064;4.492;2023-05-01T00:07:58;10.32;;;3.85;;
64029;SDS011;50277;52.064;4.492;2023-05-01T00:10:23;3.85;;;3.20;;
64029;SDS011;50277;52.064;4.492;2023-05-01T00:12:48;4.00;;;3.10;;
64029;SDS011;50277;52.064;4.492;2023-05-01T00:15:14;5.57;;;3.13;;
64029;SDS011;50277;52.064;4.492;2023-05-01T00:17:39;5.35;;;2.97;;
64029;SDS011;50277;52.064;4.492;2023-05-01T00:20:05;4.68;;;3.05;;
64029;SDS011;50277;52.064;4.492;2023-05-01T00:22:30;4.13;;;3.08;;
64029;SDS011;50277;52.064;4.492;2023-05-01T00:24:56;4.45;;;2.92;;
64029;SDS011;50277;52.064;4.492;2023-05-01T00:27:21;8.15;;;3.40;;
64029;SDS011;50277;52.064;4.492;2023-05-01T00:29:47;6.38;;;3.50;;
64029;SDS011;50277;52.064;4.492;2023-05-01T00:32:12;5.75;;;3.42;;
64029;SDS011;50277;52.064;4.492;2023-05-01T00:34:39;4.15;;;3.20;;
64029;SDS011;50277;52.064;4.492;2023-05-01T00:37:04;5.18;;;3.55;;
64029;SDS011;50277;52.064;4.492;2023-05-01T00:39:29;5.13;;;3.85;;
64029;SDS011;50277;52.064;4.492;2023-05-01T00:41:55;5.57;;;4.05;;
64029;SDS011;50277;52.064;4.492;2023-05-01T00:44:20;4.97;;;4.05;;
64029;SDS011;50277;52.064;4.492;2023-05-01T00:46:46;5.75;;;3.67;;
64029;SDS011;50277;52.064;4.492;2023-05-01T00:49:11;4.70;;;3.72;;
64029;SDS011;50277;52.064;4.492;2023-05-01T00:51:37;8.38;;;4.82;;
64029;SDS011;50277;52.064;4.492;2023-05-01T00:54:03;4.32;;;3.95;;
64029;SDS011;50277;52.064;4.492;2023-05-01T00:56:29;7.03;;;4.53;;
64029;SDS011;50277;52.064;4.492;2023-05-01T00:58:55;7.60;;;4.30;;
64029;SDS011;50277;52.064;4.492;2023-05-01T01:01:20;5.25;;;4.20;;
64029;SDS011;50277;52.064;4.492;2023-05-01T01:03:46;7.35;;;5.15;;
64029;SDS011;50277;52.064;4.492;2023-05-01T01:06:15;6.78;;;4.53;;
64029;SDS011;50277;52.064;4.492;2023-05-01T01:08:55;4.97;;;4.45;;
64029;SDS011;50277;52.064;4.492;2023-05-01T01:11:23;4.85;;;4.30;;
64029;SDS011;50277;52.064;4.492;2023-05-01T01:13:57;4.88;;;3.63;;
64029;SDS011;50277;52.064;4.492;2023-05-01T01:16:38;6.55;;;3.80;;
64029;SDS011;50277;52.064;4.492;2023-05-01T01:22:12;4.35;;;3.33;;
64029;SDS011;50277;52.064;4.492;2023-05-01T01:35:52;5.47;;;4.10;;
64029;SDS011;50277;52.064;4.492;2023-05-01T01:38:23;5.53;;;3.92;;
64029;SDS011;50277;52.064;4.492;2023-05-01T01:43:41;5.38;;;3.50;;
64029;SDS011;50277;52.064;4.492;2023-05-01T01:46:09;5.40;;;3.17;;
64029;SDS011;50277;52.064;4.492;2023-05-01T01:48:35;8.63;;;3.33;;
64029;SDS011;50277;52.064;4.492;2023-05-01T01:51:07;4.13;;;3.45;;
64029;SDS011;50277;52.064;4.492;2023-05-01T01:53:35;5.07;;;3.03;;
64029;SDS011;50277;52.064;4.492;2023-05-01T01:56:02;5.55;;;3.25;;
64029;SDS011;50277;52.064;4.492;2023-05-01T01:58:30;3.63;;;3.03;;
64029;SDS011;50277;52.064;4.492;2023-05-01T02:00:56;5.45;;;3.33;;
64029;SDS011;50277;52.064;4.492;2023-05-01T02:03:22;4.03;;;3.30;;
64029;SDS011;50277;52.064;4.492;2023-05-01T02:05:48;5.65;;;3.40;;
64029;SDS011;50277;52.064;4.492;2023-05-01T02:08:15;5.72;;;3.30;;
64029;SDS011;50277;52.064;4.492;2023-05-01T02:10:41;4.13;;;2.97;;
64029;SDS011;50277;52.064;4.492;2023-05-01T02:13:06;6.78;;;3.05;;
64029;SDS011;50277;52.064;4.492;2023-05-01T02:15:32;6.22;;;3.10;;
64029;SDS011;50277;52.064;4.492;2023-05-01T02:17:58;5.28;;;3.15;;
64029;SDS011;50277;52.064;4.492;2023-05-01T02:20:26;5.32;;;2.83;;
64029;SDS011;50277;52.064;4.492;2023-05-01T02:22:52;4.70;;;2.97;;
64029;SDS011;50277;52.064;4.492;2023-05-01T02:25:17;3.83;;;3.10;;
64029;SDS011;50277;52.064;4.492;2023-05-01T02:27:46;4.45;;;3.00;;
64029;SDS011;50277;52.064;4.492;2023-05-01T02:30:26;4.28;;;2.80;;
64029;SDS011;50277;52.064;4.492;2023-05-01T02:32:52;4.93;;;3.45;;
64029;SDS011;50277;52.064;4.492;2023-05-01T02:35:17;4.95;;;3.20;;
64029;SDS011;50277;52.064;4.492;2023-05-01T02:37:43;7.07;;;3.03;;
64029;SDS011;50277;52.064;4.492;2023-05-01T02:40:10;3.50;;;2.95;;
64029;SDS011;50277;52.064;4.492;2023-05-01T02:42:36;4.50;;;2.85;;
64029;SDS011;50277;52.064;4.492;2023-05-01T02:45:02;3.30;;;2.55;;
64029;SDS011;50277;52.064;4.492;2023-05-01T02:47:36;4.82;;;3.00;;
64029;SDS011;50277;52.064;4.492;2023-05-01T02:50:02;4.17;;;3.00;;
64029;SDS011;50277;52.064;4.492;2023-05-01T02:52:28;4.80;;;3.03;;
64029;SDS011;50277;52.064;4.492;2023-05-01T02:54:54;4.60;;;3.00;;
64029;SDS011;50277;52.064;4.492;2023-05-01T02:57:20;3.65;;;2.53;;
64029;SDS011;50277;52.064;4.492;2023-05-01T02:59:45;4.00;;;3.10;;
64029;SDS011;50277;52.064;4.492;2023-05-01T03:02:11;4.65;;;3.20;;
64029;SDS011;50277;52.064;4.492;2023-05-01T03:04:36;4.47;;;2.72;;
64029;SDS011;50277;52.064;4.492;2023-05-01T03:07:02;7.18;;;3.10;;
64029;SDS011;50277;52.064;4.492;2023-05-01T03:09:28;4.82;;;2.83;;
64029;SDS011;50277;52.064;4.492;2023-05-01T03:11:54;6.93;;;2.97;;
64029;SDS011;50277;52.064;4.492;2023-05-01T03:14:19;4.45;;;2.90;;
64029;SDS011;50277;52.064;4.492;2023-05-01T03:16:44;5.60;;;3.15;;
64029;SDS011;50277;52.064;4.492;2023-05-01T03:19:10;5.93;;;2.97;;
64029;SDS011;50277;52.064;4.492;2023-05-01T03:21:35;4.15;;;3.13;;
64029;SDS011;50277;52.064;4.492;2023-05-01T03:24:01;4.60;;;3.17;;
64029;SDS011;50277;52.064;4.492;2023-05-01T03:26:27;4.78;;;3.22;;
64029;SDS011;50277;52.064;4.492;2023-05-01T03:28:52;3.20;;;2.90;;
64029;SDS011;50277;52.064;4.492;2023-05-01T03:31:17;4.78;;;3.13;;
64029;SDS011;50277;52.064;4.492;2023-05-01T03:33:43;7.60;;;3.22;;
64029;SDS011;50277;52.064;4.492;2023-05-01T03:36:08;3.05;;;2.65;;
64029;SDS011;50277;52.064;4.492;2023-05-01T03:38:35;5.38;;;3.08;;
64029;SDS011;50277;52.064;4.492;2023-05-01T03:41:00;5.00;;;3.55;;
64029;SDS011;50277;52.064;4.492;2023-05-01T03:43:26;5.57;;;3.08;;
64029;SDS011;50277;52.064;4.492;2023-05-01T03:45:51;9.50;;;3.30;;
64029;SDS011;50277;52.064;4.492;2023-05-01T03:48:17;7.95;;;3.42;;
64029;SDS011;50277;52.064;4.492;2023-05-01T03:50:43;6.47;;;3.33;;
64029;SDS011;50277;52.064;4.492;2023-05-01T03:53:09;5.07;;;3.17;;
64029;SDS011;50277;52.064;4.492;2023-05-01T03:55:35;7.47;;;3.50;;
64029;SDS011;50277;52.064;4.492;2023-05-01T03:58:00;7.82;;;3.70;;
64029;SDS011;50277;52.064;4.492;2023-05-01T04:00:26;5.13;;;3.00;;
64029;SDS011;50277;52.064;4.492;2023-05-01T04:02:51;5.20;;;3.40;;
64029;SDS011;50277;52.064;4.492;2023-05-01T04:05:17;8.50;;;3.75;;
64029;SDS011;50277;52.064;4.492;2023-05-01T04:07:42;4.28;;;3.30;;
64029;SDS011;50277;52.064;4.492;2023-05-01T04:10:08;5.35;;;3.95;;
64029;SDS011;50277;52.064;4.492;2023-05-01T04:12:34;6.50;;;3.78;;
64029;SDS011;50277;52.064;4.492;2023-05-01T04:15:00;5.85;;;3.15;;
64029;SDS011;50277;52.064;4.492;2023-05-01T04:17:26;4.93;;;3.10;;
64029;SDS011;50277;52.064;4.492;2023-05-01T04:19:52;6.15;;;3.55;;
64029;SDS011;50277;52.064;4.492;2023-05-01T04:22:18;7.10;;;3.58;;
64029;SDS011;50277;52.064;4.492;2023-05-01T04:24:43;5.68;;;3.78;;
64029;SDS011;50277;52.064;4.492;2023-05-01T04:27:09;4.38;;;3.63;;
64029;SDS011;50277;52.064;4.492;2023-05-01T04:29:35;6.65;;;3.78;;
64029;SDS011;50277;52.064;4.492;2023-05-01T04:32:00;3.75;;;3.30;;
64029;SDS011;50277;52.064;4.492;2023-05-01T04:34:25;4.53;;;3.63;;
64029;SDS011;50277;52.064;4.492;2023-05-01T04:36:53;6.97;;;3.40;;
64029;SDS011;50277;52.064;4.492;2023-05-01T04:39:19;5.50;;;3.10;;
64029;SDS011;50277;52.064;4.492;2023-05-01T04:41:44;9.95;;;3.42;;
64029;SDS011;50277;52.064;4.492;2023-05-01T04:44:10;4.93;;;3.22;;
64029;SDS011;50277;52.064;4.492;2023-05-01T04:46:35;8.38;;;3.25;;
64029;SDS011;50277;52.064;4.492;2023-05-01T04:49:01;5.63;;;3.10;;
64029;SDS011;50277;52.064;4.492;2023-05-01T04:51:26;5.93;;;3.17;;
64029;SDS011;50277;52.064;4.492;2023-05-01T04:53:53;3.97;;;3.00;;
64029;SDS011;50277;52.064;4.492;2023-05-01T04:56:19;6.00;;;3.13;;
64029;SDS011;50277;52.064;4.492;2023-05-01T04:58:45;6.00;;;3.40;;
64029;SDS011;50277;52.064;4.492;2023-05-01T05:01:10;7.07;;;3.72;;
64029;SDS011;50277;52.064;4.492;2023-05-01T05:03:36;8.82;;;3.47;;
64029;SDS011;50277;52.064;4.492;2023-05-01T05:06:01;4.65;;;3.10;;
64029;SDS011;50277;52.064;4.492;2023-05-01T05:08:27;3.83;;;2.90;;
64029;SDS011;50277;52.064;4.492;2023-05-01T05:10:56;4.65;;;3.38;;
64029;SDS011;50277;52.064;4.492;2023-05-01T05:13:23;4.07;;;2.92;;
64029;SDS011;50277;52.064;4.492;2023-05-01T05:15:49;5.13;;;3.15;;
64029;SDS011;50277;52.064;4.492;2023-05-01T05:18:14;7.43;;;3.45;;
64029;SDS011;50277;52.064;4.492;2023-05-01T05:20:39;4.82;;;2.50;;
64029;SDS011;50277;52.064;4.492;2023-05-01T05:23:05;5.38;;;3.10;;
64029;SDS011;50277;52.064;4.492;2023-05-01T05:25:30;4.25;;;3.45;;
64029;SDS011;50277;52.064;4.492;2023-05-01T05:27:56;9.23;;;3.78;;
64029;SDS011;50277;52.064;4.492;2023-05-01T05:30:21;3.53;;;3.20;;
64029;SDS011;50277;52.064;4.492;2023-05-01T05:32:46;8.23;;;3.90;;
64029;SDS011;50277;52.064;4.492;2023-05-01T05:35:12;5.97;;;3.50;;
64029;SDS011;50277;52.064;4.492;2023-05-01T05:37:37;5.35;;;3.30;;
64029;SDS011;50277;52.064;4.492;2023-05-01T05:40:03;5.68;;;2.95;;
64029;SDS011;50277;52.064;4.492;2023-05-01T05:42:28;5.93;;;3.03;;
64029;SDS011;50277;52.064;4.492;2023-05-01T05:44:54;5.20;;;3.60;;
64029;SDS011;50277;52.064;4.492;2023-05-01T05:47:19;5.40;;;3.00;;
64029;SDS011;50277;52.064;4.492;2023-05-01T05:49:44;4.53;;;3.30;;
64029;SDS011;50277;52.064;4.492;2023-05-01T05:52:10;5.85;;;3.42;;
64029;SDS011;50277;52.064;4.492;2023-05-01T05:54:35;5.20;;;3.53;;
64029;SDS011;50277;52.064;4.492;2023-05-01T05:57:01;5.30;;;3.75;;
64029;SDS011;50277;52.064;4.492;2023-05-01T05:59:27;3.67;;;2.95;;
64029;SDS011;50277;52.064;4.492;2023-05-01T06:01:53;5.88;;;3.28;;
64029;SDS011;50277;52.064;4.492;2023-05-01T06:04:18;6.07;;;3.60;;
64029;SDS011;50277;52.064;4.492;2023-05-01T06:06:43;4.95;;;3.15;;
64029;SDS011;50277;52.064;4.492;2023-05-01T06:09:08;5.13;;;3.08;;
64029;SDS011;50277;52.064;4.492;2023-05-01T06:11:34;6.32;;;3.40;;
64029;SDS011;50277;52.064;4.492;2023-05-01T06:13:59;6.55;;;3.67;;
64029;SDS011;50277;52.064;4.492;2023-05-01T06:16:26;6.35;;;3.70;;
64029;SDS011;50277;52.064;4.492;2023-05-01T06:18:52;4.03;;;3.28;;
64029;SDS011;50277;52.064;4.492;2023-05-01T06:21:17;8.15;;;3.80;;
64029;SDS011;50277;52.064;4.492;2023-05-01T06:23:43;5.82;;;3.38;;
64029;SDS011;50277;52.064;4.492;2023-05-01T06:26:08;7.53;;;3.33;;
64029;SDS011;50277;52.064;4.492;2023-05-01T06:28:34;4.88;;;3.40;;
64029;SDS011;50277;52.064;4.492;2023-05-01T06:30:59;4.55;;;3.28;;
64029;SDS011;50277;52.064;4.492;2023-05-01T06:33:25;6.68;;;3.20;;
64029;SDS011;50277;52.064;4.492;2023-05-01T06:35:50;4.68;;;3.50;;
64029;SDS011;50277;52.064;4.492;2023-05-01T06:38:15;9.57;;;3.95;;
64029;SDS011;50277;52.064;4.492;2023-05-01T06:40:41;4.75;;;3.60;;
64029;SDS011;50277;52.064;4.492;2023-05-01T06:43:06;8.30;;;3.40;;
64029;SDS011;50277;52.064;4.492;2023-05-01T06:45:32;6.57;;;3.47;;
64029;SDS011;50277;52.064;4.492;2023-05-01T06:47:57;8.27;;;3.50;;
64029;SDS011;50277;52.064;4.492;2023-05-01T06:50:23;10.65;;;3.75;;
64029;SDS011;50277;52.064;4.492;2023-05-01T06:52:48;5.43;;;3.60;;
64029;SDS011;50277;52.064;4.492;2023-05-01T06:55:13;4.75;;;3.80;;
64029;SDS011;50277;52.064;4.492;2023-05-01T06:57:39;9.75;;;4.50;;
64029;SDS011;50277;52.064;4.492;2023-05-01T07:00:05;3.78;;;3.33;;
64029;SDS011;50277;52.064;4.492;2023-05-01T07:02:31;7.97;;;3.70;;
64029;SDS011;50277;52.064;4.492;2023-05-01T07:04:56;6.68;;;4.25;;
64029;SDS011;50277;52.064;4.492;2023-05-01T07:07:21;10.32;;;3.88;;
64029;SDS011;50277;52.064;4.492;2023-05-01T07:09:47;11.05;;;3.30;;
64029;SDS011;50277;52.064;4.492;2023-05-01T07:12:12;8.25;;;3.40;;
64029;SDS011;50277;52.064;4.492;2023-05-01T07:34:17;8.85;;;3.58;;
64029;SDS011;50277;52.064;4.492;2023-05-01T07:36:43;10.35;;;3.50;;
64029;SDS011;50277;52.064;4.492;2023-05-01T07:39:09;6.07;;;3.70;;
64029;SDS011;50277;52.064;4.492;2023-05-01T07:41:34;6.65;;;4.25;;
64029;SDS011;50277;52.064;4.492;2023-05-01T07:43:59;8.05;;;3.90;;
64029;SDS011;50277;52.064;4.492;2023-05-01T07:46:25;7.50;;;4.25;;
64029;SDS011;50277;52.064;4.492;2023-05-01T07:48:51;8.73;;;4.32;;
64029;SDS011;50277;52.064;4.492;2023-05-01T07:51:16;9.63;;;4.38;;
64029;SDS011;50277;52.064;4.492;2023-05-01T07:53:42;6.82;;;4.13;;
64029;SDS011;50277;52.064;4.492;2023-05-01T07:56:07;7.65;;;4.25;;
64029;SDS011;50277;52.064;4.492;2023-05-01T07:58:33;7.43;;;4.50;;
64029;SDS011;50277;52.064;4.492;2023-05-01T08:01:00;12.38;;;4.20;;
64029;SDS011;50277;52.064;4.492;2023-05-01T08:03:29;5.93;;;3.83;;
64029;SDS011;50277;52.064;4.492;2023-05-01T08:05:55;5.22;;;4.03;;
64029;SDS011;50277;52.064;4.492;2023-05-01T08:08:20;7.72;;;4.82;;
64029;SDS011;50277;52.064;4.492;2023-05-01T08:10:46;5.03;;;3.80;;
64029;SDS011;50277;52.064;4.492;2023-05-01T08:13:12;6.60;;;4.00;;
64029;SDS011;50277;52.064;4.492;2023-05-01T08:15:37;7.57;;;3.72;;
64029;SDS011;50277;52.064;4.492;2023-05-01T08:18:03;5.78;;;4.20;;
64029;SDS011;50277;52.064;4.492;2023-05-01T08:20:29;5.95;;;3.60;;
64029;SDS011;50277;52.064;4.492;2023-05-01T08:22:54;7.90;;;3.38;;
64029;SDS011;50277;52.064;4.492;2023-05-01T08:25:19;9.65;;;4.43;;
64029;SDS011;50277;52.064;4.492;2023-05-01T08:27:45;5.47;;;4.05;;
64029;SDS011;50277;52.064;4.492;2023-05-01T08:30:10;7.85;;;4.13;;
64029;SDS011;50277;52.064;4.492;2023-05-01T08:32:36;6.55;;;3.92;;
64029;SDS011;50277;52.064;4.492;2023-05-01T08:35:01;7.10;;;4.25;;
64029;SDS011;50277;52.064;4.492;2023-05-01T08:37:26;5.50;;;3.92;;
64029;SDS011;50277;52.064;4.492;2023-05-01T08:39:52;5.63;;;3.78;;
64029;SDS011;50277;52.064;4.492;2023-05-01T08:42:17;7.53;;;4.30;;
64029;SDS011;50277;52.064;4.492;2023-05-01T08:44:43;4.65;;;3.95;;
64029;SDS011;50277;52.064;4.492;2023-05-01T08:47:11;8.13;;;4.50;;
64029;SDS011;50277;52.064;4.492;2023-05-01T08:49:40;9.90;;;4.65;;
64029;SDS011;50277;52.064;4.492;2023-05-01T08:52:06;9.77;;;3.95;;
64029;SDS011;50277;52.064;4.492;2023-05-01T08:54:33;5.75;;;4.35;;
64029;SDS011;50277;52.064;4.492;2023-05-01T08:56:59;6.32;;;4.20;;
64029;SDS011;50277;52.064;4.492;2023-05-01T08:59:27;7.70;;;4.43;;
64029;SDS011;50277;52.064;4.492;2023-05-01T09:01:55;8.52;;;4.45;;
64029;SDS011;50277;52.064;4.492;2023-05-01T09:04:20;9.30;;;5.30;;
64029;SDS011;50277;52.064;4.492;2023-05-01T09:06:46;7.30;;;5.22;;
64029;SDS011;50277;52.064;4.492;2023-05-01T09:09:11;12.75;;;5.65;;
64029;SDS011;50277;52.064;4.492;2023-05-01T09:11:36;8.20;;;4.60;;
64029;SDS011;50277;52.064;4.492;2023-05-01T09:14:02;5.32;;;4.55;;
64029;SDS011;50277;52.064;4.492;2023-05-01T09:16:32;9.10;;;5.35;;
64029;SDS011;50277;52.064;4.492;2023-05-01T09:18:57;5.47;;;4.50;;
64029;SDS011;50277;52.064;4.492;2023-05-01T09:21:23;6.38;;;5.13;;
64029;SDS011;50277;52.064;4.492;2023-05-01T09:23:49;8.05;;;5.25;;
64029;SDS011;50277;52.064;4.492;2023-05-01T09:26:15;8.27;;;5.40;;
64029;SDS011;50277;52.064;4.492;2023-05-01T09:28:42;8.20;;;5.28;;
64029;SDS011;50277;52.064;4.492;2023-05-01T09:31:27;8.55;;;4.97;;
64029;SDS011;50277;52.064;4.492;2023-05-01T09:33:55;7.65;;;5.50;;
64029;SDS011;50277;52.064;4.492;2023-05-01T09:36:22;10.85;;;5.97;;
64029;SDS011;50277;52.064;4.492;2023-05-01T09:38:48;11.63;;;5.97;;
64029;SDS011;50277;52.064;4.492;2023-05-01T09:41:14;10.10;;;5.78;;
64029;SDS011;50277;52.064;4.492;2023-05-01T09:43:39;11.15;;;6.72;;
64029;SDS011;50277;52.064;4.492;2023-05-01T09:46:06;9.13;;;6.28;;
64029;SDS011;50277;52.064;4.492;2023-05-01T09:48:37;12.57;;;6.10;;
64029;SDS011;50277;52.064;4.492;2023-05-01T09:53:47;10.05;;;5.60;;
64029;SDS011;50277;52.064;4.492;2023-05-01T09:56:13;13.02;;;6.35;;
64029;SDS011;50277;52.064;4.492;2023-05-01T09:58:39;10.40;;;6.38;;
64029;SDS011;50277;52.064;4.492;2023-05-01T10:01:04;16.55;;;6.55;;
64029;SDS011;50277;52.064;4.492;2023-05-01T10:03:30;9.93;;;5.95;;
64029;SDS011;50277;52.064;4.492;2023-05-01T10:05:56;9.38;;;6.55;;
64029;SDS011;50277;52.064;4.492;2023-05-01T10:08:24;9.43;;;6.38;;
64029;SDS011;50277;52.064;4.492;2023-05-01T10:11:03;14.32;;;7.03;;
64029;SDS011;50277;52.064;4.492;2023-05-01T10:13:29;8.50;;;6.22;;
64029;SDS011;50277;52.064;4.492;2023-05-01T10:15:55;10.98;;;7.53;;
64029;SDS011;50277;52.064;4.492;2023-05-01T10:18:20;12.20;;;6.82;;
64029;SDS011;50277;52.064;4.492;2023-05-01T10:20:47;11.82;;;7.40;;
64029;SDS011;50277;52.064;4.492;2023-05-01T10:23:13;13.27;;;7.10;;
64029;SDS011;50277;52.064;4.492;2023-05-01T10:25:38;11.73;;;6.97;;
64029;SDS011;50277;52.064;4.492;2023-05-01T10:28:05;17.52;;;7.65;;
64029;SDS011;50277;52.064;4.492;2023-05-01T10:30:33;13.95;;;7.97;;
64029;SDS011;50277;52.064;4.492;2023-05-01T10:32:59;8.80;;;6.78;;
64029;SDS011;50277;52.064;4.492;2023-05-01T10:35:33;11.20;;;6.78;;
64029;SDS011;50277;52.064;4.492;2023-05-01T10:38:05;19.05;;;7.30;;
64029;SDS011;50277;52.064;4.492;2023-05-01T10:45:50;12.82;;;6.28;;
64029;SDS011;50277;52.064;4.492;2023-05-01T10:53:35;13.00;;;7.18;;
64029;SDS011;50277;52.064;4.492;2023-05-01T10:56:01;11.82;;;6.10;;
64029;SDS011;50277;52.064;4.492;2023-05-01T11:03:52;9.23;;;6.68;;
64029;SDS011;50277;52.064;4.492;2023-05-01T11:06:18;9.63;;;6.80;;
64029;SDS011;50277;52.064;4.492;2023-05-01T11:08:44;12.77;;;7.55;;
64029;SDS011;50277;52.064;4.492;2023-05-01T11:13:55;14.82;;;7.47;;
64029;SDS011;50277;52.064;4.492;2023-05-01T11:18:58;14.05;;;7.57;;
64029;SDS011;50277;52.064;4.492;2023-05-01T11:21:33;9.55;;;6.75;;
64029;SDS011;50277;52.064;4.492;2023-05-01T11:24:02;8.18;;;5.65;;
64029;SDS011;50277;52.064;4.492;2023-05-01T11:26:29;12.82;;;6.63;;
64029;SDS011;50277;52.064;4.492;2023-05-01T11:28:56;15.35;;;6.93;;
64029;SDS011;50277;52.064;4.492;2023-05-01T11:31:23;12.23;;;5.90;;
64029;SDS011;50277;52.064;4.492;2023-05-01T11:33:56;8.85;;;5.53;;
64029;SDS011;50277;52.064;4.492;2023-05-01T11:36:22;11.98;;;6.03;;
64029;SDS011;50277;52.064;4.492;2023-05-01T11:38:49;10.80;;;6.32;;
64029;SDS011;50277;52.064;4.492;2023-05-01T11:41:18;13.77;;;5.53;;
64029;SDS011;50277;52.064;4.492;2023-05-01T11:43:57;9.95;;;5.25;;
64029;SDS011;50277;52.064;4.492;2023-05-01T11:48:51;7.88;;;4.97;;
64029;SDS011;50277;52.064;4.492;2023-05-01T11:51:17;7.32;;;5.47;;
64029;SDS011;50277;52.064;4.492;2023-05-01T11:53:56;11.55;;;5.63;;
64029;SDS011;50277;52.064;4.492;2023-05-01T11:56:28;6.65;;;5.20;;
64029;SDS011;50277;52.064;4.492;2023-05-01T11:58:55;11.43;;;5.93;;
64029;SDS011;50277;52.064;4.492;2023-05-01T12:04:01;8.45;;;5.75;;
64029;SDS011;50277;52.064;4.492;2023-05-01T12:09:04;11.97;;;5.77;;
64029;SDS011;50277;52.064;4.492;2023-05-01T12:11:31;8.25;;;5.40;;
64029;SDS011;50277;52.064;4.492;2023-05-01T12:13:57;10.52;;;5.80;;
64029;SDS011;50277;52.064;4.492;2023-05-01T12:16:23;13.27;;;6.05;;
64029;SDS011;50277;52.064;4.492;2023-05-01T12:18:49;12.02;;;6.57;;
64029;SDS011;50277;52.064;4.492;2023-05-01T12:21:15;5.30;;;4.40;;
64029;SDS011;50277;52.064;4.492;2023-05-01T12:23:41;6.68;;;4.85;;
64029;SDS011;50277;52.064;4.492;2023-05-01T12:26:41;9.82;;;6.18;;
64029;SDS011;50277;52.064;4.492;2023-05-01T12:28:59;10.63;;;5.97;;
64029;SDS011;50277;52.064;4.492;2023-05-01T12:31:26;8.30;;;6.25;;
64029;SDS011;50277;52.064;4.492;2023-05-01T12:36:19;8.43;;;5.30;;
64029;SDS011;50277;52.064;4.492;2023-05-01T12:39:05;8.07;;;6.43;;
64029;SDS011;50277;52.064;4.492;2023-05-01T12:46:40;6.75;;;4.50;;
64029;SDS011;50277;52.064;4.492;2023-05-01T12:49:05;6.38;;;4.45;;
64029;SDS011;50277;52.064;4.492;2023-05-01T12:51:31;7.07;;;6.00;;
64029;SDS011;50277;52.064;4.492;2023-05-01T12:53:56;6.55;;;5.38;;
64029;SDS011;50277;52.064;4.492;2023-05-01T12:56:22;7.25;;;5.55;;
64029;SDS011;50277;52.064;4.492;2023-05-01T12:58:49;5.55;;;5.00;;
64029;SDS011;50277;52.064;4.492;2023-05-01T13:01:25;6.97;;;5.10;;
64029;SDS011;50277;52.064;4.492;2023-05-01T13:03:51;8.55;;;5.25;;
64029;SDS011;50277;52.064;4.492;2023-05-01T13:06:18;9.05;;;5.40;;
64029;SDS011;50277;52.064;4.492;2023-05-01T13:08:43;9.15;;;4.75;;
64029;SDS011;50277;52.064;4.492;2023-05-01T13:13:34;6.68;;;5.10;;
64029;SDS011;50277;52.064;4.492;2023-05-01T13:16:05;5.78;;;4.85;;
64029;SDS011;50277;52.064;4.492;2023-05-01T13:18:33;6.00;;;4.85;;
64029;SDS011;50277;52.064;4.492;2023-05-01T13:21:07;6.10;;;4.53;;
64029;SDS011;50277;52.064;4.492;2023-05-01T13:23:35;7.45;;;5.30;;
64029;SDS011;50277;52.064;4.492;2023-05-01T13:26:01;6.07;;;5.03;;
64029;SDS011;50277;52.064;4.492;2023-05-01T13:28:28;12.95;;;6.20;;
64029;SDS011;50277;52.064;4.492;2023-05-01T13:30:54;6.18;;;5.57;;
64029;SDS011;50277;52.064;4.492;2023-05-01T13:33:19;9.10;;;5.35;;
64029;SDS011;50277;52.064;4.492;2023-05-01T13:35:45;7.97;;;5.30;;
64029;SDS011;50277;52.064;4.492;2023-05-01T13:38:10;7.75;;;5.63;;
64029;SDS011;50277;52.064;4.492;2023-05-01T13:40:36;8.80;;;6.05;;
64029;SDS011;50277;52.064;4.492;2023-05-01T13:43:04;7.45;;;5.40;;
64029;SDS011;50277;52.064;4.492;2023-05-01T13:45:31;5.78;;;5.07;;
64029;SDS011;50277;52.064;4.492;2023-05-01T13:47:56;5.10;;;4.20;;
64029;SDS011;50277;52.064;4.492;2023-05-01T13:50:21;7.78;;;4.82;;
64029;SDS011;50277;52.064;4.492;2023-05-01T13:52:47;7.93;;;4.65;;
64029;SDS011;50277;52.064;4.492;2023-05-01T13:55:12;6.28;;;4.60;;
64029;SDS011;50277;52.064;4.492;2023-05-01T13:57:38;7.70;;;4.45;;
64029;SDS011;50277;52.064;4.492;2023-05-01T14:00:06;5.57;;;3.55;;
64029;SDS011;50277;52.064;4.492;2023-05-01T14:02:33;3.90;;;3.60;;
64029;SDS011;50277;52.064;4.492;2023-05-01T14:04:58;6.75;;;4.07;;
64029;SDS011;50277;52.064;4.492;2023-05-01T14:08:28;6.03;;;4.25;;
64029;SDS011;50277;52.064;4.492;2023-05-01T14:10:53;9.85;;;3.65;;
64029;SDS011;50277;52.064;4.492;2023-05-01T14:13:18;6.40;;;4.15;;
64029;SDS011;50277;52.064;4.492;2023-05-01T14:15:44;3.95;;;3.55;;
64029;SDS011;50277;52.064;4.492;2023-05-01T14:18:13;5.00;;;4.60;;
64029;SDS011;50277;52.064;4.492;2023-05-01T14:20:40;4.18;;;3.75;;
64029;SDS011;50277;52.064;4.492;2023-05-01T14:23:08;8.30;;;4.32;;
64029;SDS011;50277;52.064;4.492;2023-05-01T14:25:33;5.57;;;4.40;;
64029;SDS011;50277;52.064;4.492;2023-05-01T14:28:00;5.22;;;4.45;;
64029;SDS011;50277;52.064;4.492;2023-05-01T14:30:29;4.20;;;3.65;;
64029;SDS011;50277;52.064;4.492;2023-05-01T14:33:01;4.93;;;4.15;;
64029;SDS011;50277;52.064;4.492;2023-05-01T14:35:31;5.93;;;4.93;;
64029;SDS011;50277;52.064;4.492;2023-05-01T14:37:59;6.20;;;4.93;;
64029;SDS011;50277;52.064;4.492;2023-05-01T14:40:33;6.65;;;5.35;;
64029;SDS011;50277;52.064;4.492;2023-05-01T14:42:58;7.72;;;6.10;;
64029;SDS011;50277;52.064;4.492;2023-05-01T14:45:24;7.10;;;5.70;;
64029;SDS011;50277;52.064;4.492;2023-05-01T14:47:50;7.47;;;6.00;;
64029;SDS011;50277;52.064;4.492;2023-05-01T14:50:19;6.80;;;6.00;;
64029;SDS011;50277;52.064;4.492;2023-05-01T14:52:46;7.88;;;6.55;;
64029;SDS011;50277;52.064;4.492;2023-05-01T14:55:12;8.85;;;6.45;;
64029;SDS011;50277;52.064;4.492;2023-05-01T14:57:38;7.88;;;6.55;;
64029;SDS011;50277;52.064;4.492;2023-05-01T15:00:03;7.53;;;5.78;;
64029;SDS011;50277;52.064;4.492;2023-05-01T15:02:30;7.88;;;6.82;;
64029;SDS011;50277;52.064;4.492;2023-05-01T15:04:56;11.25;;;7.10;;
64029;SDS011;50277;52.064;4.492;2023-05-01T15:07:21;10.25;;;7.13;;
64029;SDS011;50277;52.064;4.492;2023-05-01T15:09:47;9.27;;;7.28;;
64029;SDS011;50277;52.064;4.492;2023-05-01T15:12:12;9.60;;;7.20;;
64029;SDS011;50277;52.064;4.492;2023-05-01T15:14:37;9.68;;;7.78;;
64029;SDS011;50277;52.064;4.492;2023-05-01T15:17:03;7.78;;;7.05;;
64029;SDS011;50277;52.064;4.492;2023-05-01T15:19:28;8.65;;;7.45;;
64029;SDS011;50277;52.064;4.492;2023-05-01T15:21:53;9.50;;;8.50;;
64029;SDS011;50277;52.064;4.492;2023-05-01T15:24:19;10.95;;;9.15;;
64029;SDS011;50277;52.064;4.492;2023-05-01T15:26:44;9.77;;;8.70;;
64029;SDS011;50277;52.064;4.492;2023-05-01T15:29:10;10.75;;;8.20;;
64029;SDS011;50277;52.064;4.492;2023-05-01T15:31:35;9.93;;;8.88;;
64029;SDS011;50277;52.064;4.492;2023-05-01T15:34:00;10.88;;;9.30;;
64029;SDS011;50277;52.064;4.492;2023-05-01T15:36:26;10.63;;;8.90;;
64029;SDS011;50277;52.064;4.492;2023-05-01T15:38:52;11.13;;;8.95;;
64029;SDS011;50277;52.064;4.492;2023-05-01T15:41:17;7.78;;;6.97;;
64029;SDS011;50277;52.064;4.492;2023-05-01T15:43:42;10.77;;;7.88;;
64029;SDS011;50277;52.064;4.492;2023-05-01T15:46:07;10.32;;;9.27;;
64029;SDS011;50277;52.064;4.492;2023-05-01T15:48:33;10.30;;;9.23;;
64029;SDS011;50277;52.064;4.492;2023-05-01T15:50:58;11.05;;;8.85;;
64029;SDS011;50277;52.064;4.492;2023-05-01T15:53:23;10.20;;;9.10;;
64029;SDS011;50277;52.064;4.492;2023-05-01T15:55:49;14.60;;;10.25;;
64029;SDS011;50277;52.064;4.492;2023-05-01T15:58:15;12.27;;;9.93;;
64029;SDS011;50277;52.064;4.492;2023-05-01T16:00:41;12.35;;;9.88;;